createdAt,value
2019-02-14T00:02:28.344Z,6.29
2019-02-14T00:04:59.386Z,6.23
2019-02-14T00:07:30.355Z,5.93
2019-02-14T00:10:02.399Z,6.08
2019-02-14T00:12:35.059Z,6.08
2019-02-14T00:15:07.567Z,6.04
2019-02-14T00:17:38.878Z,6.20
2019-02-14T00:20:10.579Z,6.27
2019-02-14T00:22:41.677Z,6.24
2019-02-14T00:25:13.238Z,6.05
2019-02-14T00:27:44.410Z,6.29
2019-02-14T00:30:15.618Z,6.09
2019-02-14T00:32:46.585Z,5.98
2019-02-14T00:35:24.868Z,6.07
2019-02-14T00:37:50.588Z,6.11
2019-02-14T00:40:21.763Z,6.21
2019-02-14T00:42:52.892Z,6.11
2019-02-14T00:45:23.878Z,6.35
2019-02-14T00:47:55.153Z,6.41
2019-02-14T00:50:26.409Z,6.27
2019-02-14T00:52:59.056Z,6.37
2019-02-14T00:55:30.350Z,6.39
2019-02-14T00:58:01.582Z,6.39
2019-02-14T01:00:32.644Z,6.35
2019-02-14T01:03:03.609Z,6.34
2019-02-14T01:05:34.954Z,6.41
2019-02-14T01:08:06.189Z,6.38
2019-02-14T01:10:37.341Z,6.37
2019-02-14T01:13:08.358Z,6.25
2019-02-14T01:15:39.917Z,6.30
2019-02-14T01:18:10.894Z,6.36
2019-02-14T01:20:41.883Z,6.14
2019-02-14T01:23:13.547Z,6.19
2019-02-14T01:25:44.878Z,6.37
2019-02-14T01:28:15.848Z,6.47
2019-02-14T01:30:47.307Z,6.38
2019-02-14T01:33:18.375Z,6.42
2019-02-14T01:35:49.631Z,6.41
2019-02-14T01:38:20.595Z,6.56
2019-02-14T01:40:52.053Z,6.56
2019-02-14T01:43:23.294Z,6.57
2019-02-14T01:45:54.543Z,6.42
2019-02-14T01:48:26.096Z,6.54
2019-02-14T01:50:58.779Z,6.44
2019-02-14T01:53:29.781Z,6.65
2019-02-14T01:56:01.030Z,6.43
2019-02-14T01:58:32.374Z,6.45
2019-02-14T02:01:03.658Z,6.35
2019-02-14T02:03:36.089Z,6.44
2019-02-14T02:06:10.732Z,6.34
2019-02-14T02:08:41.704Z,6.34
2019-02-14T02:11:13.812Z,6.31
2019-02-14T02:13:44.942Z,6.36
2019-02-14T02:16:16.287Z,6.44
2019-02-14T02:18:47.576Z,6.42
2019-02-14T02:21:18.683Z,6.42
2019-02-14T02:23:50.298Z,6.35
2019-02-14T02:26:21.378Z,6.41
2019-02-14T02:28:52.616Z,6.30
2019-02-14T02:31:25.003Z,6.36
2019-02-14T02:33:56.027Z,6.37
2019-02-14T02:36:28.324Z,6.23
2019-02-14T02:38:59.356Z,6.27
2019-02-14T02:41:30.328Z,6.18
2019-02-14T02:44:01.321Z,6.46
2019-02-14T02:46:32.302Z,6.28
2019-02-14T02:49:03.782Z,6.30
2019-02-14T02:51:35.135Z,6.32
2019-02-14T02:54:06.298Z,6.26
2019-02-14T02:56:37.284Z,6.24
2019-02-14T02:59:08.289Z,6.14
2019-02-14T03:01:39.604Z,6.19
2019-02-14T03:04:10.924Z,6.09
2019-02-14T03:06:41.976Z,5.88
2019-02-14T03:09:13.263Z,6.00
2019-02-14T03:11:44.615Z,6.03
2019-02-14T03:14:15.897Z,5.86
2019-02-14T03:16:46.896Z,5.82
2019-02-14T03:19:18.540Z,5.82
2019-02-14T03:21:49.576Z,5.75
2019-02-14T03:24:21.135Z,5.82
2019-02-14T03:26:52.101Z,5.88
2019-02-14T03:29:23.137Z,5.76
2019-02-14T03:31:54.191Z,5.75
2019-02-14T03:34:25.469Z,5.86
2019-02-14T03:36:58.948Z,5.84
2019-02-14T03:39:30.331Z,5.87
2019-02-14T03:42:01.541Z,5.80
2019-02-14T03:44:32.746Z,5.85
2019-02-14T03:47:03.822Z,5.73
2019-02-14T03:49:35.176Z,5.71
2019-02-14T03:52:06.193Z,5.59
2019-02-14T03:54:37.249Z,5.66
2019-02-14T03:57:08.298Z,5.48
2019-02-14T03:59:39.599Z,5.37
2019-02-14T04:02:10.569Z,5.36
2019-02-14T04:04:41.588Z,5.53
2019-02-14T04:07:13.650Z,5.66
2019-02-14T04:09:44.610Z,5.61
2019-02-14T04:12:16.441Z,5.50
2019-02-14T04:14:47.505Z,5.41
2019-02-14T04:17:18.482Z,5.39
2019-02-14T04:19:49.793Z,5.44
2019-02-14T04:22:20.849Z,5.52
2019-02-14T04:24:51.811Z,5.60
2019-02-14T04:27:23.133Z,5.58
2019-02-14T04:29:54.357Z,5.58
2019-02-14T04:32:25.710Z,5.63
2019-02-14T04:34:56.868Z,5.51
2019-02-14T04:37:28.930Z,5.42
2019-02-14T04:40:00.455Z,5.41
2019-02-14T04:42:32.417Z,5.45
2019-02-14T04:45:03.567Z,5.39
2019-02-14T04:47:35.639Z,5.37
2019-02-14T04:50:07.618Z,5.44
2019-02-14T04:52:38.933Z,5.01
2019-02-14T04:55:10.197Z,5.15
2019-02-14T04:57:41.427Z,5.16
2019-02-14T05:00:13.611Z,5.19
2019-02-14T05:02:44.718Z,5.23
2019-02-14T05:05:15.987Z,5.15
2019-02-14T05:07:46.969Z,5.04
2019-02-14T05:10:17.942Z,5.02
2019-02-14T05:12:48.949Z,4.92
2019-02-14T05:15:20.559Z,4.97
2019-02-14T05:17:51.550Z,4.99
2019-02-14T05:20:22.555Z,4.86
2019-02-14T05:22:54.229Z,4.87
2019-02-14T05:25:25.238Z,4.95
2019-02-14T05:27:56.213Z,5.06
2019-02-14T05:30:27.493Z,5.09
2019-02-14T05:32:59.314Z,4.98
2019-02-14T05:35:30.613Z,5.19
2019-02-14T05:38:01.605Z,5.22
2019-02-14T05:40:32.818Z,5.09
2019-02-14T05:43:03.806Z,4.91
2019-02-14T05:45:37.015Z,5.00
2019-02-14T05:48:07.978Z,5.09
2019-02-14T05:50:38.965Z,5.12
2019-02-14T05:53:10.298Z,4.90
2019-02-14T05:55:41.659Z,4.84
2019-02-14T05:58:14.401Z,5.00
2019-02-14T06:00:45.904Z,5.07
2019-02-14T06:03:17.559Z,4.99
2019-02-14T06:05:49.352Z,5.04
2019-02-14T06:08:21.510Z,5.11
2019-02-14T06:10:53.102Z,4.91
2019-02-14T06:13:24.080Z,4.87
2019-02-14T06:15:55.371Z,4.94
2019-02-14T06:18:26.641Z,4.90
2019-02-14T06:20:59.212Z,4.89
2019-02-14T06:23:30.497Z,4.84
2019-02-14T06:26:01.479Z,4.75
2019-02-14T06:28:32.477Z,4.82
2019-02-14T06:31:03.602Z,4.94
2019-02-14T06:33:34.677Z,5.02
2019-02-14T06:36:05.739Z,4.96
2019-02-14T06:38:37.124Z,4.92
2019-02-14T06:41:08.556Z,4.94
2019-02-14T06:43:40.258Z,4.94
2019-02-14T06:46:11.567Z,4.96
2019-02-14T06:48:42.547Z,4.89
2019-02-14T06:51:14.495Z,4.92
2019-02-14T06:53:45.481Z,4.82
2019-02-14T06:56:17.194Z,4.83
2019-02-14T06:58:48.937Z,4.92
2019-02-14T07:01:19.913Z,4.92
2019-02-14T07:03:51.222Z,4.93
2019-02-14T07:06:22.525Z,4.82
2019-02-14T07:08:53.843Z,4.76
2019-02-14T07:11:24.967Z,4.88
2019-02-14T07:13:55.941Z,4.88
2019-02-14T07:16:27.161Z,4.92
2019-02-14T07:18:59.145Z,4.69
2019-02-14T07:21:31.188Z,4.82
2019-02-14T07:24:02.176Z,4.84
2019-02-14T07:26:33.665Z,4.87
2019-02-14T07:29:04.775Z,4.88
2019-02-14T07:31:35.788Z,4.70
2019-02-14T07:34:06.778Z,4.72
2019-02-14T07:36:37.755Z,4.84
2019-02-14T07:39:11.111Z,5.03
2019-02-14T07:41:42.189Z,5.04
2019-02-14T07:44:14.058Z,5.27
2019-02-14T07:46:45.465Z,5.31
2019-02-14T07:49:17.246Z,5.52
2019-02-14T07:51:48.897Z,5.55
2019-02-14T07:54:19.954Z,5.82
2019-02-14T07:56:52.486Z,5.84
2019-02-14T07:59:23.959Z,6.00
2019-02-14T08:01:55.414Z,6.06
2019-02-14T08:04:26.482Z,6.18
2019-02-14T08:06:57.999Z,6.26
2019-02-14T08:09:29.547Z,6.23
2019-02-14T08:12:01.066Z,6.34
2019-02-14T08:14:33.314Z,6.44
2019-02-14T08:17:04.634Z,6.45
2019-02-14T08:19:36.127Z,6.49
2019-02-14T08:22:07.103Z,6.56
2019-02-14T08:24:38.450Z,6.48
2019-02-14T08:27:09.807Z,6.45
2019-02-14T08:29:41.678Z,6.42
2019-02-14T08:32:14.880Z,6.66
2019-02-14T08:34:46.111Z,6.83
2019-02-14T08:37:18.070Z,6.88
2019-02-14T08:39:49.835Z,7.04
2019-02-14T08:42:21.379Z,7.13
2019-02-14T08:44:52.930Z,7.26
2019-02-14T08:47:23.929Z,7.19
2019-02-14T08:49:55.275Z,7.30
2019-02-14T08:52:26.607Z,7.45
2019-02-14T08:54:57.943Z,7.54
2019-02-14T08:57:29.926Z,7.68
2019-02-14T09:00:00.960Z,7.75
2019-02-14T09:02:32.006Z,7.70
2019-02-14T09:05:03.039Z,7.71
2019-02-14T09:07:34.064Z,7.98
2019-02-14T09:10:06.287Z,8.10
2019-02-14T09:12:37.759Z,8.35
2019-02-14T09:15:10.139Z,8.43
2019-02-14T09:17:41.110Z,8.52
2019-02-14T09:20:13.659Z,8.85
2019-02-14T09:22:44.646Z,8.98
2019-02-14T09:25:16.285Z,9.16
2019-02-14T09:27:47.954Z,9.42
2019-02-14T09:30:19.638Z,9.62
2019-02-14T09:32:51.225Z,9.88
2019-02-14T09:35:23.382Z,10.05
2019-02-14T09:38:02.780Z,10.20
2019-02-14T09:40:27.757Z,10.32
2019-02-14T09:43:00.165Z,10.38
2019-02-14T09:45:31.718Z,10.43
2019-02-14T09:48:03.425Z,10.40
2019-02-14T09:50:35.026Z,10.52
2019-02-14T09:53:06.422Z,10.68
2019-02-14T09:55:37.668Z,10.81
2019-02-14T09:58:09.116Z,10.81
2019-02-14T10:00:41.075Z,10.95
2019-02-14T10:03:13.000Z,11.08
2019-02-14T10:05:44.585Z,11.16
2019-02-14T10:08:15.965Z,11.25
2019-02-14T10:10:47.588Z,11.38
2019-02-14T10:13:19.265Z,11.46
2019-02-14T10:15:50.615Z,11.66
2019-02-14T10:18:22.517Z,11.83
2019-02-14T10:20:54.129Z,11.95
2019-02-14T10:23:25.888Z,12.03
2019-02-14T10:25:56.962Z,12.12
2019-02-14T10:28:28.809Z,12.22
2019-02-14T10:31:00.129Z,12.28
2019-02-14T10:33:31.474Z,12.50
2019-02-14T10:36:04.453Z,12.67
2019-02-14T10:38:36.205Z,12.73
2019-02-14T10:41:07.298Z,12.87
2019-02-14T10:43:39.013Z,13.00
2019-02-14T10:46:10.343Z,13.05
2019-02-14T10:48:42.157Z,13.19
2019-02-14T10:51:15.099Z,13.28
2019-02-14T10:53:47.784Z,13.28
2019-02-14T10:56:19.382Z,13.33
2019-02-14T10:58:51.284Z,13.34
2019-02-14T11:01:22.928Z,13.38
2019-02-14T11:03:54.880Z,13.39
2019-02-14T11:06:26.757Z,13.43
2019-02-14T11:08:58.660Z,13.64
2019-02-14T11:11:31.181Z,13.72
2019-02-14T11:14:02.601Z,13.72
2019-02-14T11:16:33.774Z,13.81
2019-02-14T11:19:05.241Z,13.91
2019-02-14T11:21:37.064Z,13.98
2019-02-14T11:24:09.363Z,14.04
2019-02-14T11:26:40.435Z,14.13
2019-02-14T11:29:12.397Z,14.16
2019-02-14T11:31:43.666Z,14.19
2019-02-14T11:34:15.458Z,14.26
2019-02-14T11:36:47.172Z,14.23
2019-02-14T11:39:19.255Z,14.34
2019-02-14T11:41:50.593Z,14.42
2019-02-14T11:44:22.553Z,14.56
2019-02-14T11:46:54.288Z,14.45
2019-02-14T11:49:26.215Z,14.47
2019-02-14T11:51:57.452Z,14.57
2019-02-14T11:54:29.912Z,14.67
2019-02-14T11:57:01.679Z,14.78
2019-02-14T11:59:33.132Z,14.82
2019-02-14T12:02:04.705Z,14.90
2019-02-14T12:04:36.689Z,14.97
2019-02-14T12:07:07.860Z,15.02
2019-02-14T12:09:39.282Z,15.05
2019-02-14T12:12:10.269Z,14.87
2019-02-14T12:14:41.775Z,14.72
2019-02-14T12:17:13.596Z,14.59
2019-02-14T12:19:44.877Z,14.49
2019-02-14T12:22:16.192Z,14.36
2019-02-14T12:24:47.496Z,14.34
2019-02-14T12:27:19.252Z,14.35
2019-02-14T12:29:50.486Z,14.31
2019-02-14T12:32:21.473Z,14.34
2019-02-14T12:34:53.105Z,14.10
2019-02-14T12:37:24.096Z,14.07
2019-02-14T12:39:55.694Z,14.16
2019-02-14T12:42:27.444Z,14.10
2019-02-14T12:44:59.934Z,14.07
2019-02-14T12:47:31.983Z,13.80
2019-02-14T12:50:03.233Z,13.94
2019-02-14T12:52:35.450Z,13.79
2019-02-14T12:55:07.061Z,13.87
2019-02-14T12:57:38.700Z,13.72
2019-02-14T13:00:15.687Z,13.77
2019-02-14T13:02:47.381Z,13.76
2019-02-14T13:05:19.415Z,13.85
2019-02-14T13:07:50.864Z,13.92
2019-02-14T13:10:22.333Z,13.93
2019-02-14T13:12:55.459Z,14.01
2019-02-14T13:15:26.484Z,14.17
2019-02-14T13:17:57.522Z,14.28
2019-02-14T13:20:29.815Z,14.27
2019-02-14T13:23:01.677Z,14.36
2019-02-14T13:25:32.909Z,14.35
2019-02-14T13:28:04.233Z,14.51
2019-02-14T13:30:35.447Z,14.43
2019-02-14T13:33:07.302Z,14.46
2019-02-14T13:35:39.195Z,14.37
2019-02-14T13:38:10.685Z,14.47
2019-02-14T13:40:42.006Z,14.55
2019-02-14T13:43:13.326Z,14.52
2019-02-14T13:45:44.401Z,14.35
2019-02-14T13:48:15.676Z,14.33
2019-02-14T13:50:47.277Z,14.30
2019-02-14T13:53:18.788Z,14.32
2019-02-14T13:55:50.223Z,14.27
2019-02-14T13:58:22.126Z,14.23
2019-02-14T14:00:53.918Z,14.31
2019-02-14T14:03:25.857Z,14.32
2019-02-14T14:05:57.235Z,14.48
2019-02-14T14:08:29.301Z,14.40
2019-02-14T14:11:03.507Z,14.47
2019-02-14T14:13:34.859Z,14.48
2019-02-14T14:16:06.513Z,14.47
2019-02-14T14:18:38.085Z,14.48
2019-02-14T14:21:09.399Z,14.48
2019-02-14T14:23:40.723Z,14.42
2019-02-14T14:26:12.337Z,14.36
2019-02-14T14:28:43.954Z,14.34
2019-02-14T14:31:15.314Z,14.35
2019-02-14T14:33:46.664Z,14.35
2019-02-14T14:36:17.967Z,14.38
2019-02-14T14:38:49.528Z,14.43
2019-02-14T14:41:20.836Z,14.39
2019-02-14T14:43:59.902Z,14.41
2019-02-14T14:46:54.886Z,14.37
2019-02-14T14:49:26.797Z,14.38
2019-02-14T14:51:57.927Z,14.26
2019-02-14T14:54:30.423Z,14.23
2019-02-14T14:57:02.033Z,14.24
2019-02-14T14:59:33.647Z,14.28
2019-02-14T15:02:05.028Z,14.37
2019-02-14T15:04:36.624Z,14.36
2019-02-14T15:07:07.912Z,14.39
2019-02-14T15:09:39.665Z,14.28
2019-02-14T15:12:10.923Z,14.17
2019-02-14T15:14:42.191Z,14.15
2019-02-14T15:17:13.792Z,13.98
2019-02-14T15:19:45.274Z,13.98
2019-02-14T15:22:17.042Z,14.01
2019-02-14T15:24:48.041Z,14.13
2019-02-14T15:27:19.853Z,14.16
2019-02-14T15:29:51.352Z,14.08
2019-02-14T15:32:22.694Z,13.86
2019-02-14T15:34:53.922Z,13.71
2019-02-14T15:37:26.126Z,13.74
2019-02-14T15:40:08.582Z,13.76
2019-02-14T15:42:31.868Z,13.67
2019-02-14T15:45:02.861Z,13.70
2019-02-14T15:47:34.464Z,13.56
2019-02-14T15:50:08.728Z,13.53
2019-02-14T15:52:39.550Z,13.36
2019-02-14T15:55:10.933Z,13.16
2019-02-14T15:57:44.205Z,13.22
2019-02-14T16:00:15.441Z,13.10
2019-02-14T16:02:48.348Z,13.24
2019-02-14T16:05:20.700Z,13.11
2019-02-14T16:07:52.344Z,13.14
2019-02-14T16:10:25.531Z,13.00
2019-02-14T16:12:57.266Z,13.01
2019-02-14T16:15:30.861Z,13.04
2019-02-14T16:18:02.338Z,13.03
2019-02-14T16:20:34.193Z,12.98
2019-02-14T16:23:06.525Z,12.95
2019-02-14T16:25:38.248Z,12.89
2019-02-14T16:28:11.530Z,12.94
2019-02-14T16:30:42.915Z,12.68
2019-02-14T16:33:16.661Z,12.46
2019-02-14T16:35:48.233Z,12.53
2019-02-14T16:38:20.046Z,12.36
2019-02-14T16:40:51.375Z,12.36
2019-02-14T16:43:22.395Z,12.44
2019-02-14T16:45:54.013Z,12.31
2019-02-14T16:48:26.021Z,12.06
2019-02-14T16:50:59.360Z,12.01
2019-02-14T16:53:31.084Z,12.17
2019-02-14T16:56:03.019Z,12.16
2019-02-14T16:58:34.961Z,12.21
2019-02-14T17:01:06.754Z,12.21
2019-02-14T17:03:38.866Z,12.33
2019-02-14T17:06:10.659Z,12.27
2019-02-14T17:08:42.365Z,12.22
2019-02-14T17:11:13.746Z,12.13
2019-02-14T17:13:46.050Z,12.11
2019-02-14T17:16:17.561Z,12.09
2019-02-14T17:18:49.621Z,12.02
2019-02-14T17:21:21.062Z,12.04
2019-02-14T17:23:52.665Z,11.95
2019-02-14T17:26:24.528Z,11.85
2019-02-14T17:28:56.291Z,11.74
2019-02-14T17:31:27.313Z,11.72
2019-02-14T17:33:58.428Z,11.59
2019-02-14T17:36:30.597Z,11.49
2019-02-14T17:39:01.582Z,11.39
2019-02-14T17:41:34.202Z,11.18
2019-02-14T17:44:06.012Z,11.08
2019-02-14T17:46:37.356Z,10.96
2019-02-14T17:49:08.716Z,10.89
2019-02-14T17:51:40.419Z,10.48
2019-02-14T17:54:12.438Z,10.58
2019-02-14T17:56:44.535Z,10.60
2019-02-14T17:59:15.624Z,10.46
2019-02-14T18:01:47.298Z,10.39
2019-02-14T18:04:18.376Z,10.36
2019-02-14T18:06:50.496Z,10.30
2019-02-14T18:09:21.726Z,10.25
2019-02-14T18:11:53.276Z,10.08
2019-02-14T18:14:25.156Z,9.96
2019-02-14T18:16:56.448Z,9.95
2019-02-14T18:19:28.066Z,9.91
2019-02-14T18:21:59.843Z,9.82
2019-02-14T18:24:31.151Z,9.66
2019-02-14T18:27:02.679Z,9.55
2019-02-14T18:29:34.042Z,9.61
2019-02-14T18:32:07.830Z,9.56
2019-02-14T18:34:39.543Z,9.65
2019-02-14T18:37:14.907Z,9.64
2019-02-14T18:39:46.683Z,9.51
2019-02-14T18:42:18.772Z,9.52
2019-02-14T18:44:50.675Z,9.46
2019-02-14T18:47:22.616Z,9.55
2019-02-14T18:49:57.756Z,9.45
2019-02-14T18:52:28.540Z,9.41
2019-02-14T18:55:00.867Z,9.31
2019-02-14T18:57:33.811Z,9.05
2019-02-14T19:00:09.454Z,9.54
2019-02-14T19:02:40.925Z,9.14
2019-02-14T19:05:12.453Z,9.13
2019-02-14T19:07:44.908Z,9.07
2019-02-14T19:10:15.969Z,9.01
2019-02-14T19:12:47.583Z,8.92
2019-02-14T19:15:19.755Z,8.85
2019-02-14T19:17:51.646Z,8.84
2019-02-14T19:20:23.039Z,8.69
2019-02-14T19:22:54.629Z,8.60
2019-02-14T19:25:29.385Z,8.61
2019-02-14T19:27:59.466Z,8.57
2019-02-14T19:30:31.239Z,8.61
2019-02-14T19:33:03.234Z,8.55
2019-02-14T19:35:34.533Z,8.35
2019-02-14T19:38:07.632Z,8.37
2019-02-14T19:40:38.691Z,8.50
2019-02-14T19:43:09.774Z,8.35
2019-02-14T19:45:41.810Z,8.24
2019-02-14T19:48:13.231Z,8.21
2019-02-14T19:50:47.819Z,8.17
2019-02-14T19:53:19.207Z,8.19
2019-02-14T19:55:50.512Z,8.28
2019-02-14T19:58:22.135Z,8.17
2019-02-14T20:00:54.191Z,8.16
2019-02-14T20:03:25.448Z,8.10
2019-02-14T20:05:56.722Z,8.13
2019-02-14T20:08:28.694Z,8.18
2019-02-14T20:11:01.018Z,8.26
2019-02-14T20:13:32.442Z,8.04
2019-02-14T20:16:04.873Z,8.01
2019-02-14T20:18:36.458Z,7.96
2019-02-14T20:21:07.836Z,7.97
2019-02-14T20:23:39.280Z,8.01
2019-02-14T20:26:10.323Z,7.76
2019-02-14T20:28:41.691Z,7.69
2019-02-14T20:31:12.814Z,7.73
2019-02-14T20:33:45.518Z,7.84
2019-02-14T20:36:16.546Z,7.82
2019-02-14T20:38:47.908Z,7.76
2019-02-14T20:41:19.426Z,7.92
2019-02-14T20:43:51.232Z,7.76
2019-02-14T20:46:23.177Z,7.80
2019-02-14T20:48:54.840Z,7.65
2019-02-14T20:51:26.310Z,7.67
2019-02-14T20:53:57.379Z,7.42
2019-02-14T20:56:29.225Z,7.40
2019-02-14T20:59:00.903Z,7.24
2019-02-14T21:01:32.475Z,7.41
2019-02-14T21:04:04.164Z,7.35
2019-02-14T21:06:35.597Z,7.06
2019-02-14T21:09:07.467Z,7.17
2019-02-14T21:11:39.080Z,7.28
2019-02-14T21:14:10.097Z,7.26
2019-02-14T21:16:41.155Z,7.23
2019-02-14T21:19:12.320Z,7.22
2019-02-14T21:21:43.643Z,7.26
2019-02-14T21:24:16.269Z,7.32
2019-02-14T21:26:47.907Z,7.32
2019-02-14T21:29:19.335Z,7.31
2019-02-14T21:31:50.308Z,7.28
2019-02-14T21:34:21.451Z,7.24
2019-02-14T21:36:52.450Z,7.27
2019-02-14T21:39:23.755Z,7.30
2019-02-14T21:42:17.522Z,7.17
2019-02-14T21:44:28.074Z,7.23
2019-02-14T21:46:59.287Z,7.16
2019-02-14T21:49:31.455Z,7.08
2019-02-14T21:52:02.942Z,7.29
2019-02-14T21:54:34.550Z,7.24
2019-02-14T21:57:06.316Z,7.26
2019-02-14T21:59:37.349Z,7.23
2019-02-14T22:02:08.399Z,7.27
2019-02-14T22:04:39.511Z,7.23
2019-02-14T22:07:11.224Z,7.22
2019-02-14T22:09:42.811Z,7.13
2019-02-14T22:12:14.298Z,7.15
2019-02-14T22:14:45.315Z,7.24
2019-02-14T22:17:16.368Z,7.22
2019-02-14T22:19:47.379Z,7.28
2019-02-14T22:22:18.693Z,7.21
2019-02-14T22:24:49.674Z,7.17
2019-02-14T22:27:20.702Z,7.17
2019-02-14T22:29:51.697Z,7.20
2019-02-14T22:32:22.912Z,7.16
2019-02-14T22:34:53.910Z,7.09
2019-02-14T22:37:24.990Z,7.10
2019-02-14T22:39:56.324Z,6.99
2019-02-14T22:42:27.334Z,7.00
2019-02-14T22:44:58.318Z,7.07
2019-02-14T22:47:29.702Z,7.01
2019-02-14T22:50:01.503Z,6.98
2019-02-14T22:52:32.548Z,6.92
2019-02-14T22:55:03.801Z,6.92
2019-02-14T22:57:35.423Z,7.00
2019-02-14T23:00:15.051Z,6.94
2019-02-14T23:02:48.047Z,6.94
2019-02-14T23:05:19.768Z,6.89
2019-02-14T23:07:50.754Z,6.86
2019-02-14T23:10:22.004Z,6.98
2019-02-14T23:12:55.864Z,6.90
2019-02-14T23:15:26.228Z,6.99
2019-02-14T23:17:58.351Z,6.88
2019-02-14T23:20:29.339Z,6.82
2019-02-14T23:23:01.370Z,6.78
2019-02-14T23:25:32.859Z,6.66
2019-02-14T23:28:04.223Z,6.73
2019-02-14T23:30:35.370Z,6.72
2019-02-14T23:33:06.485Z,6.71
2019-02-14T23:35:37.579Z,6.79
2019-02-14T23:38:08.634Z,6.73
2019-02-14T23:40:39.611Z,6.76
2019-02-14T23:43:11.341Z,6.77
2019-02-14T23:45:42.932Z,6.47
2019-02-14T23:48:14.468Z,6.57
2019-02-14T23:50:45.550Z,6.52
2019-02-14T23:53:17.299Z,6.48
2019-02-14T23:55:48.832Z,6.54
2019-02-14T23:58:19.894Z,6.62
